createdAt,value
2019-03-27T00:03:00.577Z,9.17
2019-03-27T00:08:03.974Z,8.27
2019-03-27T00:13:07.314Z,9.33
2019-03-27T00:18:10.739Z,8.93
2019-03-27T00:23:14.033Z,8.40
2019-03-27T00:28:17.746Z,9.97
2019-03-27T00:33:21.083Z,10.00
2019-03-27T00:38:24.713Z,9.83
2019-03-27T00:43:28.113Z,9.93
2019-03-27T00:48:37.221Z,10.07
2019-03-27T00:53:40.294Z,10.80
2019-03-27T00:58:43.609Z,10.43
2019-03-27T01:03:46.927Z,11.03
2019-03-27T01:08:50.240Z,11.67
2019-03-27T01:13:53.681Z,11.03
2019-03-27T01:18:57.077Z,11.00
2019-03-27T01:24:00.716Z,11.10
2019-03-27T01:29:04.071Z,12.27
2019-03-27T01:34:07.777Z,10.97
2019-03-27T01:39:11.495Z,11.33
2019-03-27T01:44:14.823Z,12.03
2019-03-27T01:49:18.606Z,12.90
2019-03-27T01:54:21.958Z,13.03
2019-03-27T01:59:25.073Z,13.87
2019-03-27T02:04:28.480Z,13.00
2019-03-27T02:09:31.913Z,13.97
2019-03-27T02:14:35.606Z,14.30
2019-03-27T02:19:38.931Z,13.60
2019-03-27T02:24:42.001Z,13.53
2019-03-27T02:29:45.643Z,15.63
2019-03-27T02:34:48.715Z,13.77
2019-03-27T02:39:52.106Z,15.13
2019-03-27T02:44:55.586Z,14.77
2019-03-27T02:49:58.920Z,15.10
2019-03-27T02:55:02.002Z,14.93
2019-03-27T03:00:06.847Z,14.93
2019-03-27T03:05:10.384Z,15.87
2019-03-27T03:10:14.662Z,15.40
2019-03-27T03:15:20.677Z,15.33
2019-03-27T03:20:24.123Z,15.60
2019-03-27T03:25:27.549Z,15.03
2019-03-27T03:30:31.435Z,15.90
2019-03-27T03:35:34.840Z,15.17
2019-03-27T03:40:38.574Z,14.97
2019-03-27T03:45:41.977Z,14.57
2019-03-27T03:50:45.106Z,14.87
2019-03-27T03:55:49.011Z,15.20
2019-03-27T04:00:52.961Z,14.80
2019-03-27T04:05:56.441Z,15.90
2019-03-27T04:10:59.795Z,14.57
2019-03-27T04:16:03.206Z,15.57
2019-03-27T04:21:06.531Z,14.53
2019-03-27T04:26:10.856Z,13.80
2019-03-27T04:31:14.162Z,14.07
2019-03-27T04:36:17.590Z,15.77
2019-03-27T04:41:20.995Z,14.40
2019-03-27T04:46:24.083Z,13.20
2019-03-27T04:51:27.418Z,13.60
2019-03-27T04:56:30.822Z,14.20
2019-03-27T05:01:33.898Z,16.05
2019-03-27T05:06:37.261Z,15.03
2019-03-27T05:11:40.337Z,15.87
2019-03-27T05:16:43.737Z,16.70
2019-03-27T05:21:47.392Z,16.10
2019-03-27T05:26:50.819Z,15.73
2019-03-27T05:31:53.886Z,15.77
2019-03-27T05:36:58.772Z,15.40
2019-03-27T05:42:01.842Z,14.77
2019-03-27T05:47:05.580Z,15.73
2019-03-27T05:52:08.909Z,15.00
2019-03-27T05:57:12.320Z,14.57
2019-03-27T06:02:15.519Z,15.40
2019-03-27T06:07:19.246Z,15.00
2019-03-27T06:12:22.575Z,16.83
2019-03-27T06:17:27.074Z,15.63
2019-03-27T06:22:30.492Z,15.97
2019-03-27T06:27:33.892Z,16.37
2019-03-27T06:32:37.541Z,15.83
2019-03-27T06:37:41.267Z,15.83
2019-03-27T06:42:44.677Z,17.13
2019-03-27T06:47:47.986Z,16.87
2019-03-27T06:52:51.398Z,18.47
2019-03-27T06:57:54.463Z,17.87
2019-03-27T07:02:57.545Z,18.17
2019-03-27T07:08:01.210Z,17.50
2019-03-27T07:13:04.592Z,18.67
2019-03-27T07:18:08.292Z,17.43
2019-03-27T07:23:12.031Z,17.07
2019-03-27T07:28:15.434Z,20.45
2019-03-27T07:33:18.835Z,19.57
2019-03-27T07:38:22.236Z,20.40
2019-03-27T07:43:25.573Z,20.20
2019-03-27T07:48:29.294Z,20.57
2019-03-27T07:53:32.966Z,20.73
2019-03-27T07:58:36.630Z,20.83
2019-03-27T08:03:40.350Z,20.23
2019-03-27T08:08:43.778Z,20.83
2019-03-27T08:13:47.139Z,21.13
2019-03-27T08:18:50.788Z,21.40
2019-03-27T08:23:54.196Z,22.03
2019-03-27T08:28:57.592Z,22.93
2019-03-27T08:34:00.981Z,23.97
2019-03-27T08:39:07.406Z,23.97
2019-03-27T08:44:10.851Z,25.40
2019-03-27T08:49:21.667Z,24.17
2019-03-27T08:54:19.227Z,27.23
2019-03-27T08:59:22.929Z,29.13
2019-03-27T09:04:26.332Z,30.93
2019-03-27T09:09:29.407Z,34.73
2019-03-27T09:14:32.496Z,33.93
2019-03-27T09:19:36.495Z,38.40
2019-03-27T09:24:40.245Z,37.37
2019-03-27T09:29:43.643Z,42.27
2019-03-27T09:34:46.726Z,44.23
2019-03-27T09:39:50.035Z,48.37
2019-03-27T09:44:53.453Z,45.80
2019-03-27T09:49:56.525Z,41.00
2019-03-27T09:54:59.851Z,41.77
2019-03-27T10:00:04.404Z,43.13
2019-03-27T10:05:07.753Z,42.17
2019-03-27T10:10:11.286Z,40.47
2019-03-27T10:15:14.434Z,40.77
2019-03-27T10:20:18.080Z,40.93
2019-03-27T10:25:21.395Z,38.70
2019-03-27T10:30:24.943Z,37.65
2019-03-27T10:35:28.037Z,36.73
2019-03-27T10:40:31.458Z,35.43
2019-03-27T10:45:34.583Z,29.63
2019-03-27T10:50:37.658Z,30.53
2019-03-27T10:55:40.739Z,26.27
2019-03-27T11:00:44.147Z,33.80
2019-03-27T11:05:47.503Z,33.13
2019-03-27T11:10:50.824Z,28.80
2019-03-27T11:15:54.552Z,28.00
2019-03-27T11:20:58.798Z,27.83
2019-03-27T11:26:01.883Z,28.87
2019-03-27T11:31:05.599Z,30.23
2019-03-27T11:36:08.789Z,30.30
2019-03-27T11:41:12.462Z,31.23
2019-03-27T11:46:15.999Z,32.17
2019-03-27T11:51:19.338Z,30.47
2019-03-27T11:56:22.745Z,33.33
2019-03-27T12:01:38.643Z,34.60
2019-03-27T12:06:31.207Z,33.40
2019-03-27T12:11:34.290Z,31.77
2019-03-27T12:16:37.378Z,34.20
2019-03-27T12:21:41.036Z,33.47
2019-03-27T12:26:44.115Z,32.00
2019-03-27T12:31:47.753Z,32.23
2019-03-27T12:36:51.170Z,32.30
2019-03-27T12:41:54.257Z,33.13
2019-03-27T12:46:57.598Z,31.10
2019-03-27T12:52:00.951Z,29.43
2019-03-27T12:57:04.106Z,25.13
2019-03-27T13:02:07.506Z,22.83
2019-03-27T13:07:10.976Z,22.50
2019-03-27T13:12:14.047Z,23.07
2019-03-27T13:17:17.205Z,23.50
2019-03-27T13:22:20.619Z,20.07
2019-03-27T13:27:24.421Z,19.83
2019-03-27T13:32:27.515Z,19.53
2019-03-27T13:37:30.865Z,20.27
2019-03-27T13:42:34.310Z,20.43
2019-03-27T13:47:37.727Z,20.53
2019-03-27T13:52:40.877Z,19.03
2019-03-27T13:57:44.905Z,18.40
2019-03-27T14:02:48.243Z,20.27
2019-03-27T14:07:51.650Z,19.37
2019-03-27T14:12:55.064Z,18.93
2019-03-27T14:17:58.383Z,18.73
2019-03-27T14:23:01.794Z,17.60
2019-03-27T14:28:04.867Z,15.23
2019-03-27T14:33:08.339Z,14.43
2019-03-27T14:38:11.970Z,12.53
2019-03-27T14:43:15.756Z,13.80
2019-03-27T14:48:19.170Z,13.50
2019-03-27T14:53:22.245Z,13.20
2019-03-27T14:58:25.327Z,13.23
2019-03-27T15:03:28.406Z,12.47
2019-03-27T15:08:31.502Z,11.30
2019-03-27T15:13:34.917Z,12.17
2019-03-27T15:18:38.058Z,12.43
2019-03-27T15:23:41.464Z,11.53
2019-03-27T15:28:44.925Z,12.30
2019-03-27T15:33:48.318Z,11.57
2019-03-27T15:38:51.408Z,10.88
2019-03-27T15:43:54.477Z,10.83
2019-03-27T15:48:57.553Z,11.60
2019-03-27T15:54:00.628Z,11.27
2019-03-27T15:59:03.953Z,9.77
2019-03-27T16:04:07.350Z,10.40
2019-03-27T16:09:12.639Z,9.80
2019-03-27T16:14:16.112Z,9.57
2019-03-27T16:19:19.763Z,9.20
2019-03-27T16:24:23.142Z,9.20
2019-03-27T16:29:26.210Z,9.13
2019-03-27T16:34:29.286Z,9.17
2019-03-27T16:39:32.671Z,8.90
2019-03-27T16:44:35.745Z,9.43
2019-03-27T16:49:38.815Z,8.63
2019-03-27T16:54:42.196Z,8.87
2019-03-27T16:59:45.275Z,9.23
2019-03-27T17:04:48.691Z,9.57
2019-03-27T17:09:51.763Z,9.53
2019-03-27T17:14:55.404Z,10.53
2019-03-27T17:19:58.820Z,10.20
2019-03-27T17:25:02.227Z,10.50
2019-03-27T17:30:08.545Z,11.33
2019-03-27T17:35:11.703Z,11.60
2019-03-27T17:40:15.479Z,10.77
2019-03-27T17:45:18.611Z,11.83
2019-03-27T17:50:21.693Z,12.57
2019-03-27T17:55:25.147Z,12.20
2019-03-27T18:00:29.998Z,12.47
2019-03-27T18:05:33.083Z,11.50
2019-03-27T18:10:36.163Z,11.40
2019-03-27T18:15:39.241Z,12.87
2019-03-27T18:20:42.634Z,16.40
2019-03-27T18:25:45.687Z,16.43
2019-03-27T18:30:49.090Z,16.23
2019-03-27T18:35:52.915Z,15.93
2019-03-27T18:40:56.422Z,13.77
2019-03-27T18:45:59.951Z,11.43
2019-03-27T18:51:03.469Z,16.80
2019-03-27T18:56:07.269Z,14.37
2019-03-27T19:01:10.358Z,13.30
2019-03-27T19:06:13.864Z,11.73
2019-03-27T19:11:18.867Z,10.93
2019-03-27T19:16:22.223Z,12.57
2019-03-27T19:21:25.929Z,13.27
2019-03-27T19:26:29.435Z,11.67
2019-03-27T19:31:32.878Z,11.10
2019-03-27T19:36:36.299Z,11.70
2019-03-27T19:41:40.048Z,11.60
2019-03-27T19:46:44.049Z,12.87
2019-03-27T19:51:47.196Z,11.50
2019-03-27T19:56:53.012Z,12.37
2019-03-27T20:01:55.526Z,12.07
2019-03-27T20:06:58.645Z,13.17
2019-03-27T20:12:01.732Z,13.73
2019-03-27T20:17:05.037Z,13.33
2019-03-27T20:22:08.458Z,14.10
2019-03-27T20:27:11.531Z,13.90
2019-03-27T20:32:14.611Z,14.20
2019-03-27T20:37:17.687Z,13.70
2019-03-27T20:42:21.099Z,13.17
2019-03-27T20:47:24.173Z,14.30
2019-03-27T20:52:27.581Z,14.50
2019-03-27T20:57:31.217Z,14.80
2019-03-27T21:02:34.627Z,13.67
2019-03-27T21:07:37.970Z,14.13
2019-03-27T21:12:41.376Z,13.57
2019-03-27T21:17:45.133Z,14.27
2019-03-27T21:22:48.204Z,13.87
2019-03-27T21:27:51.605Z,14.10
2019-03-27T21:32:55.348Z,14.77
2019-03-27T21:37:59.344Z,15.88
2019-03-27T21:43:03.080Z,14.85
2019-03-27T21:48:06.808Z,15.10
2019-03-27T21:53:10.210Z,14.90
2019-03-27T21:58:13.610Z,14.63
2019-03-27T22:03:17.359Z,15.73
2019-03-27T22:08:20.429Z,14.33
2019-03-27T22:13:24.067Z,14.20
2019-03-27T22:18:27.411Z,13.87
2019-03-27T22:23:30.491Z,13.83
2019-03-27T22:28:33.828Z,14.20
2019-03-27T22:33:37.549Z,15.57
2019-03-27T22:38:40.863Z,14.45
2019-03-27T22:43:43.955Z,14.80
2019-03-27T22:48:47.287Z,14.63
2019-03-27T22:53:50.595Z,15.13
2019-03-27T22:58:54.013Z,15.27
2019-03-27T23:03:57.418Z,15.20
2019-03-27T23:09:01.134Z,15.57
2019-03-27T23:14:04.205Z,17.50
2019-03-27T23:19:07.669Z,15.73
2019-03-27T23:24:11.396Z,16.37
2019-03-27T23:29:14.459Z,16.00
2019-03-27T23:34:17.812Z,16.43
2019-03-27T23:39:21.129Z,17.30
2019-03-27T23:44:24.581Z,17.37
2019-03-27T23:49:27.956Z,17.30
2019-03-27T23:54:31.358Z,18.10
2019-03-27T23:59:34.771Z,18.73
